Time,TemperatureF,DewpointF,PressureIn,WindDirection,WindDirectionDegrees,WindSpeedMPH,WindSpeedGustMPH,Humidity,HourlyPrecipIn,Conditions,Clouds,dailyrainin,SoftwareType,DateUTC
2013-11-01 00:26:00,50.5,50.2,29.63,East,95,3.0,3.0,99,0.18,,,0.70,Wunderground v.1.15,2013-11-01 04:26:00,
2013-11-01 00:56:00,51.6,51.3,29.62,ESE,104,3.0,3.0,99,0.11,,,0.02,Wunderground v.1.15,2013-11-01 04:56:00,
2013-11-01 01:26:00,52.5,52.2,29.59,East,96,2.0,2.0,99,0.05,,,0.05,Wunderground v.1.15,2013-11-01 05:26:00,
2013-11-01 02:16:00,53.6,53.3,29.56,SSE,155,2.0,2.0,99,0.05,,,0.09,Wunderground v.1.15,2013-11-01 06:16:00,
2013-11-01 02:26:00,53.8,53.5,29.54,SE,142,2.0,5.0,99,0.04,,,0.10,Wunderground v.1.15,2013-11-01 06:26:00,
2013-11-01 02:56:00,54.2,53.9,29.52,SE,130,2.0,2.0,99,0.00,,,0.12,Wunderground v.1.15,2013-11-01 06:56:00,
2013-11-01 04:26:00,55.0,54.7,29.46,ESE,115,2.0,2.0,99,0.08,,,0.20,Wunderground v.1.15,2013-11-01 08:26:00,
2013-11-01 04:36:00,55.3,55.0,29.46,SW,217,2.0,13.0,99,0.06,,,0.21,Wunderground v.1.15,2013-11-01 08:36:00,
2013-11-01 04:46:00,55.1,54.5,29.46,SSW,208,0.0,0.0,98,0.06,,,0.22,Wunderground v.1.15,2013-11-01 08:46:00,
2013-11-01 04:56:00,55.6,55.0,29.44,SSE,154,2.0,2.0,98,0.06,,,0.23,Wunderground v.1.15,2013-11-01 08:56:00,
2013-11-01 05:06:00,55.7,55.1,29.44,West,277,1.0,9.0,98,0.17,,,0.25,Wunderground v.1.15,2013-11-01 09:06:00,
2013-11-01 05:16:00,56.2,55.4,29.44,NW,313,4.0,4.0,97,0.14,,,0.27,Wunderground v.1.15,2013-11-01 09:16:00,
2013-11-01 05:26:00,56.3,55.2,29.43,NW,306,3.0,5.0,96,0.14,,,0.29,Wunderground v.1.15,2013-11-01 09:26:00,
2013-11-01 05:36:00,56.6,55.5,29.43,West,277,1.0,1.0,96,0.10,,,0.31,Wunderground v.1.15,2013-11-01 09:36:00,
2013-11-01 05:56:00,57.8,55.5,29.42,SW,219,4.0,4.0,92,0.04,,,0.33,Wunderground v.1.15,2013-11-01 09:56:00,
2013-11-01 07:56:00,59.3,57.0,29.37,SSW,202,2.0,4.0,92,0.08,,,0.50,Wunderground v.1.15,2013-11-01 11:56:00,
2013-11-01 08:16:00,59.6,57.3,29.37,SSW,213,5.0,6.0,92,0.06,,,0.52,Wunderground v.1.15,2013-11-01 12:16:00,
2013-11-01 08:26:00,59.8,57.2,29.36,WSW,241,4.0,5.0,91,0.11,,,0.54,Wunderground v.1.15,2013-11-01 12:26:00,
2013-11-01 09:26:00,60.2,57.6,29.34,WSW,253,5.0,5.0,91,0.04,,,0.63,Wunderground v.1.15,2013-11-01 13:26:00,
2013-11-01 10:26:00,61.5,58.2,29.29,SSW,213,6.0,6.0,89,0.05,,,0.66,Wunderground v.1.15,2013-11-01 14:26:00,
2013-11-01 10:56:00,61.8,58.8,29.27,SW,221,8.0,8.0,90,0.06,,,0.68,Wunderground v.1.15,2013-11-01 14:56:00,
2013-11-01 11:26:00,61.8,58.8,29.25,SSW,202,5.0,6.0,90,0.00,,,0.69,Wunderground v.1.15,2013-11-01 15:26:00,
2013-11-01 12:06:00,60.5,56.6,29.28,WSW,251,14.0,18.0,87,0.10,,,0.86,Wunderground v.1.15,2013-11-01 16:06:00,
2013-11-01 12:16:00,60.9,54.0,29.28,NW,319,17.0,19.0,78,0.04,,,0.87,Wunderground v.1.15,2013-11-01 16:16:00,
2013-11-01 12:26:00,60.1,53.9,29.29,West,273,13.0,13.0,80,0.04,,,0.87,Wunderground v.1.15,2013-11-01 16:26:00,
2013-11-01 12:46:00,59.5,52.3,29.27,West,269,10.0,10.0,77,0.00,,,0.88,Wunderground v.1.15,2013-11-01 16:46:00,
2013-11-01 12:56:00,58.4,52.9,29.24,SW,232,4.0,10.0,82,0.08,,,0.90,Wunderground v.1.15,2013-11-01 16:56:00,
2013-11-01 13:16:00,57.5,52.7,29.25,West,273,5.0,5.0,84,0.04,,,0.91,Wunderground v.1.15,2013-11-01 17:16:00,
2013-11-01 13:26:00,58.4,51.2,29.24,WSW,250,6.0,10.0,77,0.00,,,0.91,Wunderground v.1.15,2013-11-01 17:26:00,
2013-11-01 13:56:00,60.7,51.2,29.23,NE,39,7.0,7.0,71,0.00,,,0.91,Wunderground v.1.15,2013-11-01 17:56:00,
2013-11-01 15:06:00,62.3,50.4,29.22,West,273,6.0,17.0,65,0.00,,,0.91,Wunderground v.1.15,2013-11-01 19:06:00,
2013-11-01 15:16:00,62.0,50.5,29.23,SW,232,7.0,10.0,66,0.00,,,0.91,Wunderground v.1.15,2013-11-01 19:16:00,
2013-11-01 15:26:00,63.1,49.9,29.23,WSW,239,5.0,6.0,62,0.00,,,0.91,Wunderground v.1.15,2013-11-01 19:26:00,
2013-11-01 15:46:00,64.2,50.5,29.24,West,267,3.0,4.0,61,0.00,,,0.91,Wunderground v.1.15,2013-11-01 19:46:00,
2013-11-01 15:56:00,63.9,47.4,29.25,WSW,252,9.0,9.0,55,0.00,,,0.91,Wunderground v.1.15,2013-11-01 19:56:00,
2013-11-01 16:06:00,63.7,47.7,29.25,WSW,257,6.0,20.0,56,0.00,,,0.91,Wunderground v.1.15,2013-11-01 20:06:00,
2013-11-01 16:16:00,63.9,47.4,29.25,NW,319,9.0,15.0,55,0.00,,,0.91,Wunderground v.1.15,2013-11-01 20:16:00,
2013-11-01 16:26:00,63.2,48.2,29.25,WSW,242,8.0,10.0,58,0.00,,,0.91,Wunderground v.1.15,2013-11-01 20:26:00,
2013-11-01 16:56:00,62.7,47.2,29.26,West,270,8.0,15.0,57,0.00,,,0.91,Wunderground v.1.15,2013-11-01 20:56:00,
2013-11-01 17:26:00,62.4,46.0,29.27,WNW,294,6.0,6.0,55,0.00,,,0.91,Wunderground v.1.15,2013-11-01 21:26:00,
2013-11-01 17:36:00,62.6,46.2,29.27,WSW,247,7.0,7.0,55,0.00,,,0.91,Wunderground v.1.15,2013-11-01 21:36:00,
2013-11-01 17:56:00,62.3,45.9,29.29,WNW,296,6.0,6.0,55,0.00,,,0.91,Wunderground v.1.15,2013-11-01 21:56:00,
2013-11-01 18:26:00,62.0,45.6,29.28,South,182,9.0,9.0,55,0.00,,,0.91,Wunderground v.1.15,2013-11-01 22:26:00,
2013-11-01 19:26:00,61.6,41.7,29.32,West,272,8.0,14.0,48,0.00,,,0.91,Wunderground v.1.15,2013-11-01 23:26:00,
2013-11-01 19:46:00,61.5,39.4,29.33,NNW,335,8.0,9.0,44,0.00,,,0.91,Wunderground v.1.15,2013-11-01 23:46:00,
2013-11-01 19:56:00,61.3,39.2,29.34,WSW,250,8.0,11.0,44,0.00,,,0.91,Wunderground v.1.15,2013-11-01 23:56:00,
2013-11-01 20:06:00,61.3,39.2,29.34,WSW,257,9.0,9.0,44,0.00,,,0.91,Wunderground v.1.15,2013-11-02 00:06:00,
2013-11-01 20:26:00,60.7,39.2,29.36,WNW,302,10.0,17.0,45,0.00,,,0.91,Wunderground v.1.15,2013-11-02 00:26:00,
2013-11-01 20:36:00,60.5,39.6,29.36,West,279,7.0,7.0,46,0.00,,,0.91,Wunderground v.1.15,2013-11-02 00:36:00,
2013-11-01 20:46:00,60.2,39.3,29.38,WSW,257,9.0,13.0,46,0.00,,,0.91,Wunderground v.1.15,2013-11-02 00:46:00,
2013-11-01 20:56:00,59.9,39.6,29.39,SW,223,11.0,11.0,47,0.00,,,0.91,Wunderground v.1.15,2013-11-02 00:56:00,
2013-11-01 21:26:00,58.1,40.6,29.41,NW,321,10.0,17.0,52,0.00,,,0.91,Wunderground v.1.15,2013-11-02 01:26:00,
2013-11-01 21:56:00,57.6,38.0,29.42,West,278,18.0,18.0,48,0.00,,,0.91,Wunderground v.1.15,2013-11-02 01:56:00,
2013-11-01 22:46:00,56.3,38.4,29.45,WNW,292,11.0,11.0,51,0.00,,,0.91,Wunderground v.1.15,2013-11-02 02:46:00,
2013-11-01 22:56:00,56.0,38.6,29.45,West,273,11.0,17.0,52,0.00,,,0.91,Wunderground v.1.15,2013-11-02 02:56:00,
2013-11-01 23:16:00,55.1,38.7,29.45,NW,313,7.0,7.0,54,0.00,,,0.91,Wunderground v.1.15,2013-11-02 03:16:00,
2013-11-01 23:26:00,55.1,38.7,29.46,WSW,257,8.0,8.0,54,0.00,,,0.91,Wunderground v.1.15,2013-11-02 03:26:00,
2013-11-01 23:36:00,55.4,37.6,29.46,West,265,9.0,9.0,51,0.00,,,0.91,Wunderground v.1.15,2013-11-02 03:36:00,
2013-11-01 23:46:00,55.4,37.6,29.46,West,263,8.0,8.0,51,0.00,,,0.91,Wunderground v.1.15,2013-11-02 03:46:00,
2013-11-01 23:56:00,55.0,38.2,29.47,West,277,7.0,10.0,53,0.00,,,0.91,Wunderground v.1.15,2013-11-02 03:56:00,